createdAt,value
2022-12-01T00:01:09.090Z,1.30
2022-12-01T00:03:36.745Z,1.60
2022-12-01T00:06:11.378Z,1.75
2022-12-01T00:08:38.893Z,1.48
2022-12-01T00:11:14.288Z,1.38
2022-12-01T00:13:41.275Z,1.50
2022-12-01T00:16:16.881Z,1.40
2022-12-01T00:18:44.316Z,1.63
2022-12-01T00:21:19.184Z,1.67
2022-12-01T00:23:48.364Z,1.58
2022-12-01T00:26:16.547Z,1.77
2022-12-01T00:28:43.823Z,1.80
2022-12-01T00:31:12.326Z,1.63
2022-12-01T00:33:40.216Z,1.60
2022-12-01T00:36:07.706Z,1.90
2022-12-01T00:38:35.290Z,1.67
2022-12-01T00:41:03.139Z,1.70
2022-12-01T00:43:30.537Z,1.80
2022-12-01T00:45:57.716Z,2.50
2022-12-01T00:48:25.209Z,1.70
2022-12-01T00:50:53.877Z,1.60
2022-12-01T00:53:21.195Z,1.80
2022-12-01T00:55:48.248Z,2.33
2022-12-01T00:58:15.332Z,1.77
2022-12-01T01:00:43.170Z,1.73
2022-12-01T01:03:11.381Z,1.80
2022-12-01T01:05:40.619Z,1.63
2022-12-01T01:08:13.789Z,1.80
2022-12-01T01:10:46.824Z,1.92
2022-12-01T01:13:15.520Z,1.45
2022-12-01T01:15:42.686Z,1.58
2022-12-01T01:18:11.871Z,1.88
2022-12-01T01:20:39.014Z,1.60
2022-12-01T01:23:06.316Z,1.50
2022-12-01T01:25:33.450Z,1.88
2022-12-01T01:28:00.638Z,1.38
2022-12-01T01:30:27.906Z,1.80
2022-12-01T01:32:54.938Z,1.80
2022-12-01T01:35:22.040Z,1.63
2022-12-01T01:37:50.318Z,1.88
2022-12-01T01:40:17.832Z,2.13
2022-12-01T01:42:45.339Z,1.67
2022-12-01T01:45:32.537Z,2.10
2022-12-01T01:48:00.941Z,1.92
2022-12-01T01:50:28.817Z,1.70
2022-12-01T01:53:00.660Z,1.88
2022-12-01T01:55:28.924Z,1.83
2022-12-01T01:57:56.198Z,1.58
2022-12-01T02:00:23.366Z,1.42
2022-12-01T02:02:51.554Z,1.48
2022-12-01T02:05:23.599Z,1.70
2022-12-01T02:07:56.986Z,1.65
2022-12-01T02:10:59.939Z,1.40
2022-12-01T02:13:45.676Z,1.40
2022-12-01T02:17:06.686Z,1.70
2022-12-01T02:19:54.199Z,1.60
2022-12-01T02:23:02.342Z,1.40
2022-12-01T02:25:46.726Z,1.63
2022-12-01T02:28:32.172Z,1.63
2022-12-01T02:31:15.080Z,1.58
2022-12-01T02:33:53.559Z,1.65
2022-12-01T02:36:32.564Z,1.10
2022-12-01T02:39:19.241Z,1.70
2022-12-01T02:41:54.189Z,1.30
2022-12-01T02:44:35.691Z,1.45
2022-12-01T02:47:11.527Z,1.67
2022-12-01T02:49:49.981Z,1.52
2022-12-01T02:52:19.116Z,1.67
2022-12-01T02:54:48.638Z,2.25
2022-12-01T02:57:16.816Z,1.70
2022-12-01T02:59:49.009Z,1.63
2022-12-01T03:02:24.633Z,1.50
2022-12-01T03:05:00.658Z,1.35
2022-12-01T03:07:54.493Z,1.38
2022-12-01T03:10:40.340Z,1.83
2022-12-01T03:13:20.326Z,1.70
2022-12-01T03:16:12.568Z,2.33
2022-12-01T03:18:56.913Z,2.10
2022-12-01T03:21:32.989Z,1.25
2022-12-01T03:24:08.454Z,2.20
2022-12-01T03:26:38.073Z,1.80
2022-12-01T03:29:37.039Z,1.85
2022-12-01T03:32:27.079Z,1.70
2022-12-01T03:35:04.703Z,1.40
2022-12-01T03:37:49.897Z,1.70
2022-12-01T03:40:22.846Z,1.60
2022-12-01T03:42:57.962Z,2.00
2022-12-01T03:45:34.670Z,2.17
2022-12-01T03:48:01.912Z,1.73
2022-12-01T03:50:54.118Z,2.13
2022-12-01T03:53:28.887Z,1.95
2022-12-01T03:56:03.814Z,1.58
2022-12-01T03:58:39.514Z,1.88
2022-12-01T04:01:08.303Z,1.90
2022-12-01T04:03:35.608Z,2.03
2022-12-01T04:06:04.932Z,2.13
2022-12-01T04:08:33.963Z,2.15
2022-12-01T04:11:01.026Z,1.73
2022-12-01T04:13:28.339Z,1.98
2022-12-01T04:15:55.803Z,1.92
2022-12-01T04:18:22.889Z,1.58
2022-12-01T04:20:50.865Z,2.03
2022-12-01T04:23:36.363Z,1.75
2022-12-01T04:26:05.631Z,1.90
2022-12-01T04:28:32.707Z,2.10
2022-12-01T04:30:59.751Z,2.40
2022-12-01T04:33:26.807Z,1.80
2022-12-01T04:35:58.757Z,1.90
2022-12-01T04:38:30.640Z,2.00
2022-12-01T04:40:58.095Z,1.95
2022-12-01T04:43:25.259Z,1.52
2022-12-01T04:45:52.291Z,1.90
2022-12-01T04:48:19.317Z,1.67
2022-12-01T04:50:49.560Z,1.60
2022-12-01T04:53:16.553Z,2.05
2022-12-01T04:55:43.791Z,1.83
2022-12-01T04:58:10.860Z,1.60
2022-12-01T05:00:38.099Z,2.00
2022-12-01T05:03:06.934Z,1.90
2022-12-01T05:05:35.664Z,1.92
2022-12-01T05:08:02.780Z,2.13
2022-12-01T05:10:30.032Z,2.10
2022-12-01T05:12:58.557Z,2.00
2022-12-01T05:15:25.640Z,2.22
2022-12-01T05:17:52.650Z,1.80
2022-12-01T05:20:42.737Z,1.83
2022-12-01T05:23:15.258Z,1.77
2022-12-01T05:25:43.934Z,2.33
2022-12-01T05:28:11.071Z,2.00
2022-12-01T05:30:38.128Z,1.80
2022-12-01T05:33:05.121Z,1.80
2022-12-01T05:35:33.923Z,1.95
2022-12-01T05:38:06.055Z,1.60
2022-12-01T05:43:02.501Z,1.80
2022-12-01T05:45:29.622Z,1.50
2022-12-01T05:47:58.016Z,1.65
2022-12-01T05:50:26.065Z,1.40
2022-12-01T05:52:53.060Z,2.30
2022-12-01T05:55:20.413Z,1.73
2022-12-01T05:57:47.348Z,1.33
2022-12-01T06:00:15.573Z,1.48
2022-12-01T06:02:43.405Z,1.73
2022-12-01T06:05:10.397Z,1.48
2022-12-01T06:07:40.408Z,1.45
2022-12-01T06:10:09.768Z,1.40
2022-12-01T06:12:37.530Z,1.65
2022-12-01T06:15:06.897Z,1.38
2022-12-01T06:17:39.789Z,1.30
2022-12-01T06:20:08.672Z,1.45
2022-12-01T06:22:35.781Z,1.60
2022-12-01T06:25:02.771Z,1.40
2022-12-01T06:27:29.719Z,1.42
2022-12-01T06:29:56.761Z,1.40
2022-12-01T06:32:23.794Z,1.50
2022-12-01T06:34:50.769Z,1.70
2022-12-01T06:37:18.234Z,1.70
2022-12-01T06:39:45.240Z,1.60
2022-12-01T06:42:12.503Z,1.42
2022-12-01T06:44:39.622Z,1.27
2022-12-01T06:47:08.361Z,1.45
2022-12-01T06:49:35.995Z,1.35
2022-12-01T06:52:03.154Z,1.20
2022-12-01T06:54:30.211Z,1.20
2022-12-01T06:56:57.242Z,1.83
2022-12-01T06:59:25.084Z,1.27
2022-12-01T07:01:52.458Z,1.60
2022-12-01T07:04:19.509Z,1.73
2022-12-01T07:06:46.546Z,1.50
2022-12-01T07:09:13.529Z,1.20
2022-12-01T07:11:40.627Z,1.13
2022-12-01T07:14:12.029Z,1.50
2022-12-01T07:16:39.121Z,1.40
2022-12-01T07:19:06.131Z,1.50
2022-12-01T07:21:33.149Z,1.10
2022-12-01T07:24:00.886Z,1.10
2022-12-01T07:26:27.935Z,2.05
2022-12-01T07:28:54.957Z,1.30
2022-12-01T07:31:21.973Z,1.10
2022-12-01T07:33:49.004Z,1.30
2022-12-01T07:36:16.206Z,1.38
2022-12-01T07:38:43.648Z,1.45
2022-12-01T07:41:13.118Z,1.55
2022-12-01T07:43:40.521Z,1.48
2022-12-01T07:46:20.422Z,1.52
2022-12-01T07:48:51.191Z,1.23
2022-12-01T07:51:19.021Z,1.58
2022-12-01T07:53:47.431Z,1.55
2022-12-01T07:56:14.572Z,1.10
2022-12-01T07:58:42.464Z,1.20
2022-12-01T08:01:15.019Z,1.50
2022-12-01T08:03:42.784Z,1.40
2022-12-01T08:06:10.518Z,1.23
2022-12-01T08:08:39.484Z,1.60
2022-12-01T08:11:15.172Z,1.65
2022-12-01T08:13:42.340Z,1.27
2022-12-01T08:16:12.322Z,1.45
2022-12-01T08:18:40.550Z,1.42
2022-12-01T08:21:09.656Z,1.40
2022-12-01T08:23:36.672Z,1.48
2022-12-01T08:26:07.051Z,1.38
2022-12-01T08:28:36.405Z,1.20
2022-12-01T08:31:09.681Z,1.10
2022-12-01T08:33:36.955Z,1.38
2022-12-01T08:36:05.313Z,1.67
2022-12-01T08:38:33.315Z,1.58
2022-12-01T08:41:05.391Z,1.38
2022-12-01T08:43:56.486Z,1.25
2022-12-01T08:46:19.798Z,1.10
2022-12-01T08:48:47.252Z,0.95
2022-12-01T08:51:18.612Z,1.17
2022-12-01T08:53:48.636Z,1.20
2022-12-01T08:56:24.531Z,1.10
2022-12-01T08:58:52.290Z,1.30
2022-12-01T09:01:19.840Z,1.08
2022-12-01T09:03:47.315Z,1.50
2022-12-01T09:06:22.643Z,1.30
2022-12-01T09:08:49.768Z,1.25
2022-12-01T09:11:19.618Z,1.00
2022-12-01T09:13:52.997Z,1.40
2022-12-01T09:16:21.703Z,1.20
2022-12-01T09:18:48.827Z,1.25
2022-12-01T09:21:22.529Z,1.33
2022-12-01T09:23:49.942Z,2.00
2022-12-01T09:26:19.355Z,1.80
2022-12-01T09:28:47.845Z,1.40
2022-12-01T09:31:16.505Z,1.30
2022-12-01T09:33:43.536Z,1.20
2022-12-01T09:36:11.068Z,1.10
2022-12-01T09:38:39.591Z,1.20
2022-12-01T09:41:12.128Z,1.13
2022-12-01T09:43:48.350Z,1.10
2022-12-01T09:46:29.367Z,0.95
2022-12-01T09:48:58.234Z,0.90
2022-12-01T09:51:28.502Z,1.33
2022-12-01T09:53:58.964Z,1.08
2022-12-01T09:56:40.950Z,1.42
2022-12-01T09:59:12.665Z,0.95
2022-12-01T10:01:43.991Z,1.02
2022-12-01T10:04:14.112Z,1.10
2022-12-01T10:07:03.485Z,1.10
2022-12-01T10:09:41.676Z,1.23
2022-12-01T10:12:24.019Z,1.00
2022-12-01T10:14:51.315Z,1.77
2022-12-01T10:17:48.378Z,1.60
2022-12-01T10:20:47.784Z,1.50
2022-12-01T10:23:39.825Z,1.83
2022-12-01T10:26:31.803Z,1.38
2022-12-01T10:29:10.901Z,1.10
2022-12-01T10:31:55.195Z,1.15
2022-12-01T10:34:26.530Z,1.10
2022-12-01T10:36:53.719Z,1.35
2022-12-01T10:39:31.203Z,1.20
2022-12-01T10:42:10.241Z,1.65
2022-12-01T10:44:37.397Z,2.95
2022-12-01T10:47:09.430Z,2.65
2022-12-01T10:49:41.329Z,3.28
2022-12-01T10:52:30.248Z,3.15
2022-12-01T10:54:57.434Z,2.75
2022-12-01T10:57:25.453Z,2.40
2022-12-01T10:59:58.003Z,2.28
2022-12-01T11:02:28.798Z,2.05
2022-12-01T11:05:08.170Z,1.70
2022-12-01T11:07:46.305Z,1.33
2022-12-01T11:10:34.555Z,1.25
2022-12-01T11:13:37.120Z,1.40
2022-12-01T11:16:06.592Z,1.70
2022-12-01T11:18:38.718Z,6.78
2022-12-01T11:21:15.824Z,7.22
2022-12-01T11:23:50.941Z,5.25
2022-12-01T11:26:28.179Z,2.53
2022-12-01T11:29:26.078Z,2.40
2022-12-01T11:31:53.753Z,4.25
2022-12-01T11:34:28.998Z,2.08
2022-12-01T11:37:06.211Z,2.17
2022-12-01T11:39:38.494Z,2.10
2022-12-01T11:42:14.548Z,2.67
2022-12-01T11:44:52.717Z,1.90
2022-12-01T11:47:25.485Z,1.98
2022-12-01T11:50:00.995Z,3.37
2022-12-01T11:52:31.485Z,4.03
2022-12-01T11:55:23.671Z,4.25
2022-12-01T11:57:54.239Z,3.60
2022-12-01T12:00:24.370Z,2.60
2022-12-01T12:03:10.027Z,2.80
2022-12-01T12:09:32.497Z,3.53
2022-12-01T12:12:19.581Z,2.42
2022-12-01T12:14:49.449Z,1.75
2022-12-01T12:17:50.183Z,1.92
2022-12-01T12:20:41.410Z,2.20
2022-12-01T12:23:25.030Z,1.98
2022-12-01T12:25:58.275Z,1.38
2022-12-01T12:28:37.314Z,1.60
2022-12-01T12:31:21.600Z,1.50
2022-12-01T12:33:56.122Z,1.20
2022-12-01T12:36:44.079Z,1.48
2022-12-01T12:39:50.224Z,1.20
2022-12-01T12:42:48.201Z,1.35
2022-12-01T12:45:25.421Z,1.52
2022-12-01T12:48:12.127Z,1.27
2022-12-01T12:50:42.058Z,1.27
2022-12-01T12:53:21.251Z,1.20
2022-12-01T12:55:54.788Z,2.50
2022-12-01T12:58:27.471Z,2.40
2022-12-01T13:01:01.904Z,2.17
2022-12-01T13:03:38.748Z,1.25
2022-12-01T13:06:11.676Z,1.70
2022-12-01T13:08:48.387Z,2.30
2022-12-01T13:11:39.241Z,2.22
2022-12-01T13:14:28.238Z,1.58
2022-12-01T13:17:02.883Z,1.10
2022-12-01T13:19:33.892Z,1.83
2022-12-01T13:22:01.603Z,1.50
2022-12-01T13:24:31.559Z,1.65
2022-12-01T13:27:06.161Z,1.13
2022-12-01T13:29:47.622Z,1.02
2022-12-01T13:32:41.298Z,2.30
2022-12-01T13:35:22.338Z,1.10
2022-12-01T13:37:49.493Z,1.10
2022-12-01T13:40:24.805Z,1.00
2022-12-01T13:43:10.274Z,2.35
2022-12-01T13:45:40.416Z,1.40
2022-12-01T13:48:28.058Z,1.08
2022-12-01T13:51:03.231Z,1.20
2022-12-01T13:53:52.867Z,1.30
2022-12-01T13:56:39.249Z,1.50
2022-12-01T14:00:03.506Z,1.50
2022-12-01T14:02:33.499Z,1.50
2022-12-01T14:05:23.385Z,0.88
2022-12-01T14:07:54.471Z,1.17
2022-12-01T14:10:55.089Z,1.30
2022-12-01T14:13:23.503Z,2.08
2022-12-01T14:15:57.145Z,1.10
2022-12-01T14:20:51.333Z,1.10
2022-12-01T14:23:29.383Z,1.05
2022-12-01T14:26:12.299Z,2.58
2022-12-01T14:28:57.980Z,2.00
2022-12-01T14:31:33.957Z,1.52
2022-12-01T14:34:19.636Z,1.70
2022-12-01T14:36:52.042Z,0.98
2022-12-01T14:39:59.705Z,0.98
2022-12-01T14:42:53.867Z,1.20
2022-12-01T14:45:27.355Z,2.20
2022-12-01T14:48:02.413Z,1.33
2022-12-01T14:50:43.540Z,1.40
2022-12-01T14:53:24.149Z,1.25
2022-12-01T14:55:56.912Z,1.63
2022-12-01T14:58:28.810Z,0.93
2022-12-01T15:00:58.485Z,1.17
2022-12-01T15:03:38.738Z,1.90
2022-12-01T15:06:06.520Z,1.10
2022-12-01T15:08:53.083Z,1.58
2022-12-01T15:11:26.266Z,1.42
2022-12-01T15:13:57.841Z,1.10
2022-12-01T15:16:29.056Z,1.05
2022-12-01T15:18:56.817Z,1.48
2022-12-01T15:21:28.257Z,1.10
2022-12-01T15:24:25.122Z,1.77
2022-12-01T15:26:59.138Z,2.70
2022-12-01T15:29:31.246Z,1.50
2022-12-01T15:32:04.993Z,1.40
2022-12-01T15:37:05.026Z,1.63
2022-12-01T15:39:35.617Z,1.30
2022-12-01T15:42:04.013Z,1.42
2022-12-01T15:44:35.377Z,1.95
2022-12-01T15:47:30.461Z,2.60
2022-12-01T15:49:57.487Z,1.50
2022-12-01T15:52:24.749Z,1.60
2022-12-01T15:54:52.177Z,1.70
2022-12-01T15:57:21.980Z,1.20
2022-12-01T15:59:55.461Z,1.33
2022-12-01T16:02:28.048Z,1.10
2022-12-01T16:05:13.521Z,0.98
2022-12-01T16:10:32.425Z,1.30
2022-12-01T16:13:36.610Z,1.10
2022-12-01T16:16:35.300Z,1.50
2022-12-01T16:19:19.261Z,1.95
2022-12-01T16:21:52.765Z,1.60
2022-12-01T16:24:27.859Z,1.70
2022-12-01T16:26:59.031Z,1.55
2022-12-01T16:29:28.000Z,1.35
2022-12-01T16:32:20.266Z,1.00
2022-12-01T16:34:57.349Z,1.27
2022-12-01T16:37:24.699Z,1.27
2022-12-01T16:39:52.053Z,1.30
2022-12-01T16:42:21.389Z,1.13
2022-12-01T16:44:49.776Z,0.90
2022-12-01T16:47:31.551Z,1.00
2022-12-01T16:49:58.791Z,2.42
2022-12-01T16:55:25.999Z,1.73
2022-12-01T16:57:52.995Z,1.63
2022-12-01T17:00:20.288Z,1.58
2022-12-01T17:02:47.333Z,1.98
2022-12-01T17:05:14.560Z,1.38
2022-12-01T17:07:41.586Z,1.25
2022-12-01T17:10:09.191Z,1.42
2022-12-01T17:12:36.528Z,1.50
2022-12-01T17:15:04.753Z,2.08
2022-12-01T17:17:31.798Z,2.50
2022-12-01T17:19:58.822Z,1.40
2022-12-01T17:22:25.875Z,1.35
2022-12-01T17:24:55.035Z,1.60
2022-12-01T17:27:23.430Z,1.30
2022-12-01T17:29:50.435Z,1.20
2022-12-01T17:32:17.804Z,1.90
2022-12-01T17:34:44.873Z,2.10
2022-12-01T17:37:16.153Z,1.40
2022-12-01T17:39:46.383Z,1.95
2022-12-01T17:42:13.376Z,1.38
2022-12-01T17:44:40.338Z,1.30
2022-12-01T17:47:07.470Z,1.50
2022-12-01T17:49:36.629Z,1.65
2022-12-01T17:52:07.280Z,1.58
2022-12-01T17:54:34.359Z,2.00
2022-12-01T17:57:01.369Z,2.33
2022-12-01T17:59:28.504Z,1.33
2022-12-01T18:01:55.690Z,1.65
2022-12-01T18:04:22.709Z,1.38
2022-12-01T18:06:53.971Z,1.15
2022-12-01T18:09:22.197Z,1.25
2022-12-01T18:11:49.528Z,0.85
2022-12-01T18:14:18.109Z,0.80
2022-12-01T18:16:45.673Z,1.13
2022-12-01T18:19:13.076Z,1.50
2022-12-01T18:21:41.022Z,1.70
2022-12-01T18:24:11.765Z,2.00
2022-12-01T18:26:41.386Z,1.80
2022-12-01T18:29:24.035Z,2.35
2022-12-01T18:31:52.947Z,1.88
2022-12-01T18:34:20.028Z,1.80
2022-12-01T18:36:47.405Z,5.50
2022-12-01T18:39:14.474Z,4.15
2022-12-01T18:41:41.623Z,3.10
2022-12-01T18:44:08.635Z,2.33
2022-12-01T18:46:35.683Z,2.33
2022-12-01T18:49:03.283Z,2.47
2022-12-01T18:51:32.617Z,2.53
2022-12-01T18:54:01.591Z,2.70
2022-12-01T18:56:29.745Z,2.85
2022-12-01T18:59:07.417Z,2.70
2022-12-01T19:01:36.792Z,2.53
2022-12-01T19:04:05.332Z,2.85
2022-12-01T19:06:33.634Z,2.67
2022-12-01T19:09:02.252Z,2.70
2022-12-01T19:11:29.717Z,2.42
2022-12-01T19:13:57.567Z,2.70
2022-12-01T19:16:25.213Z,3.17
2022-12-01T19:18:52.405Z,2.47
2022-12-01T19:21:20.232Z,1.70
2022-12-01T19:23:48.331Z,1.80
2022-12-01T19:26:18.125Z,1.00
2022-12-01T19:28:45.983Z,0.90
2022-12-01T19:31:19.367Z,1.08
2022-12-01T19:33:47.038Z,1.50
2022-12-01T19:36:19.380Z,1.08
2022-12-01T19:38:47.699Z,1.30
2022-12-01T19:41:20.915Z,1.33
2022-12-01T19:43:48.449Z,1.30
2022-12-01T19:46:18.891Z,1.63
2022-12-01T19:48:46.537Z,1.75
2022-12-01T19:51:21.936Z,2.03
2022-12-01T19:53:49.525Z,1.92
2022-12-01T19:56:16.529Z,2.25
2022-12-01T19:58:43.895Z,2.00
2022-12-01T20:01:13.498Z,1.70
2022-12-01T20:03:41.292Z,1.30
2022-12-01T20:06:14.133Z,1.58
2022-12-01T20:08:41.463Z,1.70
2022-12-01T20:11:09.203Z,2.17
2022-12-01T20:13:39.987Z,2.30
2022-12-01T20:16:16.096Z,2.20
2022-12-01T20:18:44.019Z,2.90
2022-12-01T20:21:25.216Z,2.58
2022-12-01T20:23:59.676Z,1.88
2022-12-01T20:26:36.559Z,1.70
2022-12-01T20:29:19.847Z,1.60
2022-12-01T20:31:47.523Z,1.30
2022-12-01T20:34:21.215Z,1.60
2022-12-01T20:36:48.781Z,1.52
2022-12-01T20:39:16.313Z,1.10
2022-12-01T20:41:44.019Z,1.05
2022-12-01T20:44:12.339Z,1.20
2022-12-01T20:46:41.318Z,0.60
2022-12-01T20:49:08.867Z,0.60
2022-12-01T20:51:35.866Z,0.75
2022-12-01T20:54:27.246Z,0.90
2022-12-01T20:56:52.501Z,0.65
2022-12-01T20:59:19.552Z,0.73
2022-12-01T21:01:46.575Z,0.55
2022-12-01T21:04:13.664Z,0.60
2022-12-01T21:06:40.729Z,0.90
2022-12-01T21:09:08.659Z,2.13
2022-12-01T21:12:02.489Z,2.90
2022-12-01T21:14:43.317Z,2.40
2022-12-01T21:17:24.762Z,3.50
2022-12-01T21:20:18.176Z,3.65
2022-12-01T21:22:46.453Z,3.30
2022-12-01T21:25:19.166Z,3.47
2022-12-01T21:27:47.312Z,2.40
2022-12-01T21:30:17.004Z,1.80
2022-12-01T21:32:44.797Z,1.40
2022-12-01T21:35:22.165Z,1.52
2022-12-01T21:37:50.104Z,1.98
2022-12-01T21:40:23.266Z,2.10
2022-12-01T21:42:50.966Z,1.38
2022-12-01T21:45:30.742Z,2.20
2022-12-01T21:48:06.490Z,2.50
2022-12-01T21:50:33.585Z,2.03
2022-12-01T21:53:00.632Z,1.73
2022-12-01T21:55:33.140Z,1.90
2022-12-01T21:58:00.180Z,1.42
2022-12-01T22:00:28.863Z,1.00
2022-12-01T22:03:26.838Z,1.25
2022-12-01T22:06:33.218Z,1.10
2022-12-01T22:09:28.074Z,1.20
2022-12-01T22:11:58.054Z,1.00
2022-12-01T22:14:30.404Z,1.20
2022-12-01T22:17:01.490Z,1.38
2022-12-01T22:19:37.869Z,1.40
2022-12-01T22:22:25.509Z,1.05
2022-12-01T22:24:54.682Z,0.70
2022-12-01T22:27:38.772Z,1.10
2022-12-01T22:30:05.715Z,0.80
2022-12-01T22:33:05.226Z,1.00
2022-12-01T22:35:49.131Z,1.25
2022-12-01T22:38:20.745Z,1.10
2022-12-01T22:41:14.456Z,1.25
2022-12-01T22:43:52.375Z,1.10
2022-12-01T22:46:35.120Z,1.00
2022-12-01T22:49:06.310Z,1.13
2022-12-01T22:51:44.153Z,1.10
2022-12-01T22:54:17.123Z,0.98
2022-12-01T22:56:46.908Z,1.30
2022-12-01T22:59:20.013Z,1.02
2022-12-01T23:01:52.291Z,1.00
2022-12-01T23:04:26.862Z,0.70
2022-12-01T23:06:59.926Z,0.80
2022-12-01T23:09:32.522Z,0.70
2022-12-01T23:12:06.193Z,0.88
2022-12-01T23:14:34.273Z,0.63
2022-12-01T23:17:07.621Z,0.80
2022-12-01T23:19:35.312Z,0.70
2022-12-01T23:22:02.786Z,0.80
2022-12-01T23:24:33.914Z,0.50
2022-12-01T23:27:01.523Z,0.55
2022-12-01T23:29:30.196Z,0.90
2022-12-01T23:31:57.166Z,0.70
2022-12-01T23:34:24.162Z,0.70
2022-12-01T23:36:51.496Z,0.60
2022-12-01T23:39:19.318Z,0.65
2022-12-01T23:41:49.045Z,0.50
2022-12-01T23:44:15.979Z,0.35
2022-12-01T23:46:43.273Z,0.80
2022-12-01T23:49:14.964Z,0.50
2022-12-01T23:51:48.202Z,0.40
2022-12-01T23:54:35.464Z,0.50
2022-12-01T23:57:22.280Z,0.70
2022-12-01T23:59:51.891Z,0.52
